Time;durP1;ratioP1;P1;durP2;ratioP2;P2;SDS_P1;SDS_P2;PMS_P1;PMS_P2;Temp;Humidity;BMP_temperature;BMP_pressure;BME280_temperature;BME280_humidity;BME280_pressure;Samples;Min_cycle;Max_cycle;Signal;HPM_P1;HPM_P2
2021/11/08 00:01:35;;;;;;;;;;;;;;;6.49;100.00;99371.72;5004901;28;19918;-69
2021/11/08 00:04:01;;;;;;;;;;;;;;;6.39;100.00;99377.81;5008168;28;19921;-68
2021/11/08 00:06:27;;;;;;;;;;;;;;;6.45;100.00;99385.41;4991735;28;19953;-68
2021/11/08 00:08:58;;;;;;;;;;;;;;;6.58;100.00;99383.59;4992238;28;19961;-68
2021/11/08 00:11:26;;;;;;;;;;;;;;;6.60;100.00;99380.16;5000087;28;20326;-67
2021/11/08 00:13:53;;;;;;;;;;;;;;;6.37;100.00;99377.81;5001069;28;19918;-68
2021/11/08 00:21:45;;;;;;;;;;;;;;;6.33;100.00;99390.63;5005338;28;19948;-68
2021/11/08 00:24:13;;;;;;;;;;;;;;;6.90;100.00;99396.06;5006301;28;19924;-68
2021/11/08 00:26:39;;;;;;;;;;;;;;;6.72;100.00;99393.69;5006280;28;20325;-68
2021/11/08 00:29:04;;;;;;;;;;;;;;;6.68;100.00;99401.41;4990784;28;19914;-68
2021/11/08 00:31:30;;;;;;;;;;;;;;;6.72;100.00;99396.25;5008296;28;19917;-68
2021/11/08 00:33:55;;;;;;;;;;;;;;;6.54;100.00;99400.66;5010775;28;19913;-68
2021/11/08 00:36:21;;;;;;;;;;;;;;;6.54;100.00;99407.50;5008870;28;19913;-68
2021/11/08 00:38:46;;;;;;;;;;;;;;;6.34;100.00;99407.66;5008417;28;19928;-68
2021/11/08 00:41:12;;;;;;;;;;;;;;;6.44;100.00;99410.13;4999771;28;19917;-68
2021/11/08 00:43:37;;;;;;;;;;;;;;;6.42;100.00;99416.97;5008748;28;19917;-68
2021/11/08 00:46:06;;;;;;;;;;;;;;;6.36;100.00;99421.28;5008787;28;19960;-68
2021/11/08 00:48:36;;;;;;;;;;;;;;;6.38;100.00;99414.47;5008753;28;19976;-68
2021/11/08 00:51:02;;;;;;;;;;;;;;;6.45;100.00;99410.97;5008789;28;20442;-68
2021/11/08 00:53:27;;;;;;;;;;;;;;;6.48;100.00;99422.06;4990825;28;19917;-68
2021/11/08 00:55:54;;;;;;;;;;;;;;;6.43;100.00;99420.38;5009595;28;19925;-68
2021/11/08 00:58:31;;;;;;;;;;;;;;;6.24;100.00;99417.97;5008800;28;19995;-68
2021/11/08 01:01:01;;;;;;;;;;;;;;;6.34;100.00;99428.13;5008880;28;19918;-68
2021/11/08 01:03:27;;;;;;;;;;;;;;;6.48;100.00;99426.31;5008510;28;19918;-68
2021/11/08 01:05:52;;;;;;;;;;;;;;;6.41;100.00;99427.22;4991350;28;19920;-68
2021/11/08 01:08:18;;;;;;;;;;;;;;;6.57;100.00;99421.13;5008659;28;20323;-69
2021/11/08 01:10:44;;;;;;;;;;;;;;;6.13;100.00;99424.88;5004005;28;19917;-68
2021/11/08 01:13:09;;;;;;;;;;;;;;;6.30;100.00;99429.88;4976954;28;19914;-68
2021/11/08 01:15:35;;;;;;;;;;;;;;;6.16;100.00;99432.53;5012167;28;19935;-68
2021/11/08 01:18:00;;;;;;;;;;;;;;;6.16;100.00;99442.78;4999566;28;20688;-69
2021/11/08 01:20:32;;;;;;;;;;;;;;;6.37;100.00;99443.47;5012785;28;20609;-68
2021/11/08 01:22:58;;;;;;;;;;;;;;;6.65;100.00;99444.06;5016654;28;20414;-68
2021/11/08 01:25:24;;;;;;;;;;;;;;;6.10;100.00;99442.81;5013768;28;19917;-68
2021/11/08 01:27:53;;;;;;;;;;;;;;;6.54;100.00;99441.59;5014204;28;19917;-68
2021/11/08 01:30:20;;;;;;;;;;;;;;;6.70;100.00;99450.00;5006089;28;19979;-67
2021/11/08 01:35:43;;;;;;;;;;;;;;;6.35;100.00;99448.59;4983099;28;19979;-68
2021/11/08 01:38:21;;;;;;;;;;;;;;;6.45;100.00;99454.47;5000512;28;20347;-68
2021/11/08 01:40:47;;;;;;;;;;;;;;;6.64;100.00;99450.91;4999528;28;20028;-68
2021/11/08 01:43:12;;;;;;;;;;;;;;;6.62;100.00;99455.19;4999872;28;19927;-67
2021/11/08 01:45:41;;;;;;;;;;;;;;;6.47;100.00;99455.31;4998381;28;20308;-68
2021/11/08 01:48:07;;;;;;;;;;;;;;;6.97;100.00;99451.44;4999231;28;19956;-68
2021/11/08 01:50:33;;;;;;;;;;;;;;;6.70;100.00;99442.31;4982326;28;19929;-68
2021/11/08 01:52:59;;;;;;;;;;;;;;;6.49;100.00;99454.44;5000908;28;19917;-68
2021/11/08 01:55:26;;;;;;;;;;;;;;;6.76;100.00;99451.66;4982013;28;19913;-67
2021/11/08 01:57:51;;;;;;;;;;;;;;;6.69;100.00;99459.41;4982851;28;20407;-67
2021/11/08 02:00:17;;;;;;;;;;;;;;;6.69;100.00;99461.94;4998607;28;19925;-67
2021/11/08 02:02:43;;;;;;;;;;;;;;;6.46;100.00;99467.25;4998620;28;20540;-67
2021/11/08 02:05:11;;;;;;;;;;;;;;;6.69;100.00;99467.06;4999289;28;19932;-68
2021/11/08 02:07:43;;;;;;;;;;;;;;;6.96;100.00;99465.13;5000747;28;19927;-68
2021/11/08 02:10:09;;;;;;;;;;;;;;;6.39;100.00;99480.13;4998506;28;19960;-68
2021/11/08 02:12:35;;;;;;;;;;;;;;;6.73;100.00;99479.84;4998008;28;19921;-67
2021/11/08 02:15:02;;;;;;;;;;;;;;;6.67;100.00;99486.72;4999613;28;19925;-68
2021/11/08 02:17:31;;;;;;;;;;;;;;;6.69;100.00;99492.66;4980056;28;19925;-67
2021/11/08 02:20:05;;;;;;;;;;;;;;;6.87;100.00;99489.09;4982267;28;19925;-68
2021/11/08 02:22:31;;;;;;;;;;;;;;;6.73;100.00;99495.19;4981041;28;19932;-68
2021/11/08 02:24:56;;;;;;;;;;;;;;;6.67;100.00;99494.38;4999457;28;20320;-67
2021/11/08 02:27:22;;;;;;;;;;;;;;;6.87;100.00;99496.78;4998425;28;19921;-68
2021/11/08 02:29:51;;;;;;;;;;;;;;;6.80;100.00;99494.31;4981760;28;20060;-68
2021/11/08 02:32:17;;;;;;;;;;;;;;;6.81;100.00;99485.75;4999752;28;19924;-68
2021/11/08 02:34:42;;;;;;;;;;;;;;;6.80;100.00;99484.91;5000105;28;20408;-68
2021/11/08 02:37:08;;;;;;;;;;;;;;;6.76;100.00;99482.38;4997627;28;19929;-68
2021/11/08 02:39:38;;;;;;;;;;;;;;;6.89;100.00;99483.97;4998926;28;19917;-68
2021/11/08 02:42:04;;;;;;;;;;;;;;;6.80;100.00;99490.03;4981269;28;19921;-68
2021/11/08 02:44:29;;;;;;;;;;;;;;;6.72;100.00;99501.19;5000545;28;19953;-68
2021/11/08 02:46:56;;;;;;;;;;;;;;;7.17;100.00;99499.06;4997435;28;19925;-68
2021/11/08 02:49:29;;;;;;;;;;;;;;;6.84;100.00;99493.38;4999069;28;19925;-67
2021/11/08 02:52:04;;;;;;;;;;;;;;;6.80;100.00;99495.16;4997986;28;19921;-67
2021/11/08 02:54:33;;;;;;;;;;;;;;;6.84;100.00;99496.81;4998773;28;20487;-68
2021/11/08 02:56:59;;;;;;;;;;;;;;;7.00;100.00;99500.09;4998755;28;19913;-68
2021/11/08 02:59:29;;;;;;;;;;;;;;;7.10;100.00;99493.16;4999897;28;20044;-67
2021/11/08 03:01:56;;;;;;;;;;;;;;;6.99;100.00;99493.25;4994277;28;19940;-68
2021/11/08 03:04:34;;;;;;;;;;;;;;;7.04;100.00;99494.06;4998269;28;19926;-67
2021/11/08 03:07:00;;;;;;;;;;;;;;;7.03;100.00;99486.41;4999017;28;20675;-68
2021/11/08 03:09:36;;;;;;;;;;;;;;;7.25;100.00;99481.88;4998059;28;19948;-68
2021/11/08 03:12:09;;;;;;;;;;;;;;;7.00;100.00;99482.16;4998443;28;19964;-68
2021/11/08 03:14:39;;;;;;;;;;;;;;;7.11;100.00;99475.19;4997605;28;19917;-68
2021/11/08 03:17:05;;;;;;;;;;;;;;;7.26;100.00;99473.34;4997428;28;19922;-68
2021/11/08 03:19:36;;;;;;;;;;;;;;;7.31;100.00;99471.59;4997241;28;19924;-68
2021/11/08 03:22:13;;;;;;;;;;;;;;;7.17;100.00;99470.91;4981692;28;20020;-68
2021/11/08 03:24:50;;;;;;;;;;;;;;;7.20;100.00;99468.28;4998623;28;19929;-68
2021/11/08 03:27:27;;;;;;;;;;;;;;;7.10;100.00;99483.75;4998253;28;19922;-68
2021/11/08 03:29:52;;;;;;;;;;;;;;;7.08;100.00;99480.34;4982058;28;19945;-68
2021/11/08 03:32:18;;;;;;;;;;;;;;;7.44;100.00;99483.41;4979542;28;19925;-68
2021/11/08 03:34:50;;;;;;;;;;;;;;;7.24;100.00;99480.22;4997417;28;19988;-68
2021/11/08 03:37:16;;;;;;;;;;;;;;;7.31;100.00;99471.59;4997161;28;20258;-68
2021/11/08 03:39:41;;;;;;;;;;;;;;;7.05;100.00;99470.16;4998785;28;20392;-68
2021/11/08 03:42:06;;;;;;;;;;;;;;;7.34;100.00;99468.97;4997348;28;19925;-68
2021/11/08 03:44:33;;;;;;;;;;;;;;;6.98;100.00;99473.66;4997274;28;19921;-67
2021/11/08 03:46:58;;;;;;;;;;;;;;;7.07;100.00;99477.81;4977430;28;19928;-68
2021/11/08 03:49:25;;;;;;;;;;;;;;;7.16;100.00;99479.44;4978882;28;19921;-68
2021/11/08 03:51:51;;;;;;;;;;;;;;;7.40;100.00;99486.84;4993360;28;19929;-67
2021/11/08 03:54:17;;;;;;;;;;;;;;;7.81;100.00;99482.94;4999333;28;19925;-68
2021/11/08 03:56:42;;;;;;;;;;;;;;;7.51;100.00;99479.88;4996157;28;19966;-68
2021/11/08 03:59:07;;;;;;;;;;;;;;;7.72;100.00;99477.94;4997999;28;19947;-68
2021/11/08 04:01:35;;;;;;;;;;;;;;;7.52;100.00;99470.47;4997154;28;19922;-68
2021/11/08 04:04:02;;;;;;;;;;;;;;;7.82;100.00;99483.78;4998691;28;19922;-68
2021/11/08 04:06:31;;;;;;;;;;;;;;;7.48;100.00;99469.69;4996633;28;19921;-68
2021/11/08 04:09:02;;;;;;;;;;;;;;;7.42;100.00;99480.00;4998152;28;19924;-68
2021/11/08 04:11:28;;;;;;;;;;;;;;;7.50;100.00;99482.47;4981765;28;20391;-67
2021/11/08 04:14:03;;;;;;;;;;;;;;;8.02;100.00;99481.78;4980609;28;20550;-68
2021/11/08 04:16:29;;;;;;;;;;;;;;;7.65;100.00;99484.00;4993437;28;19947;-68
2021/11/08 04:18:56;;;;;;;;;;;;;;;7.66;100.00;99486.56;4996631;28;19922;-68
2021/11/08 04:21:22;;;;;;;;;;;;;;;7.42;100.00;99489.41;4996436;28;20016;-68
2021/11/08 04:23:47;;;;;;;;;;;;;;;7.47;100.00;99498.72;4979577;28;20020;-68
2021/11/08 04:26:18;;;;;;;;;;;;;;;7.65;100.00;99496.81;4996450;28;20485;-68
2021/11/08 04:28:51;;;;;;;;;;;;;;;7.60;100.00;99498.59;4998376;28;19964;-67
2021/11/08 04:31:16;;;;;;;;;;;;;;;7.21;100.00;99506.72;4996692;28;19964;-68
2021/11/08 04:33:49;;;;;;;;;;;;;;;7.93;100.00;99507.56;4997104;28;20012;-68
2021/11/08 04:46:54;;;;;;;;;;;;;;;7.57;100.00;99493.50;4996422;28;19917;-71
2021/11/08 04:49:49;;;;;;;;;;;;;;;7.51;100.00;99495.28;4984393;28;19963;-68
2021/11/08 05:25:32;;;;;;;;;;;;;;;7.50;100.00;99514.09;4993810;28;19979;-68
2021/11/08 05:28:30;;;;;;;;;;;;;;;7.38;100.00;99515.91;4995313;28;20462;-68
2021/11/08 05:30:44;;;;;;;;;;;;;;;7.29;100.00;99509.19;4994475;28;19918;-68
2021/11/08 05:33:09;;;;;;;;;;;;;;;7.29;100.00;99514.31;4994863;28;19936;-68
2021/11/08 05:35:38;;;;;;;;;;;;;;;7.02;100.00;99521.38;4996366;28;19957;-68
2021/11/08 05:38:09;;;;;;;;;;;;;;;7.08;100.00;99529.00;4996401;28;20001;-68
2021/11/08 05:40:43;;;;;;;;;;;;;;;7.22;100.00;99523.75;4997682;28;20289;-68
2021/11/08 05:43:09;;;;;;;;;;;;;;;7.10;100.00;99529.00;4979998;28;19930;-68
2021/11/08 05:45:41;;;;;;;;;;;;;;;7.52;100.00;99521.72;4997549;28;19917;-68
2021/11/08 05:48:08;;;;;;;;;;;;;;;7.11;100.00;99523.00;4978719;28;20011;-68
2021/11/08 05:50:34;;;;;;;;;;;;;;;7.19;100.00;99533.22;4996275;28;19922;-68
2021/11/08 05:53:00;;;;;;;;;;;;;;;7.32;100.00;99535.63;4998122;28;19967;-68
2021/11/08 06:50:16;;;;;;;;;;;;;;;7.21;100.00;99613.44;4985812;28;19968;-69
2021/11/08 06:52:46;;;;;;;;;;;;;;;7.57;100.00;99611.38;5000434;28;19918;-69
2021/11/08 06:55:13;;;;;;;;;;;;;;;7.39;100.00;99604.72;5000626;28;19972;-69
2021/11/08 06:57:50;;;;;;;;;;;;;;;7.35;100.00;99618.44;5000226;28;20616;-69
2021/11/08 07:00:17;;;;;;;;;;;;;;;7.27;100.00;99614.22;4999134;28;20404;-69
2021/11/08 07:02:42;;;;;;;;;;;;;;;7.13;100.00;99611.78;5000594;28;19917;-69
2021/11/08 07:05:08;;;;;;;;;;;;;;;7.45;100.00;99623.47;4999749;28;20377;-69
2021/11/08 07:07:34;;;;;;;;;;;;;;;7.06;100.00;99625.50;4983358;28;19925;-69
2021/11/08 07:10:10;;;;;;;;;;;;;;;7.69;100.00;99636.91;4998930;28;19976;-69
2021/11/08 07:12:35;;;;;;;;;;;;;;;8.05;100.00;99627.09;4996878;28;20024;-69
2021/11/08 07:15:05;;;;;;;;;;;;;;;7.51;100.00;99623.41;4999075;28;19939;-70
2021/11/08 07:17:32;;;;;;;;;;;;;;;7.79;100.00;99638.50;4983960;28;20483;-68
2021/11/08 07:20:08;;;;;;;;;;;;;;;7.78;100.00;99630.81;5000374;28;19992;-69
2021/11/08 07:22:34;;;;;;;;;;;;;;;7.61;100.00;99628.44;4980707;28;19925;-69
2021/11/08 07:25:00;;;;;;;;;;;;;;;7.42;100.00;99645.72;5000504;28;20393;-69
2021/11/08 07:27:27;;;;;;;;;;;;;;;7.66;100.00;99642.06;4981911;28;20372;-69
2021/11/08 07:29:53;;;;;;;;;;;;;;;7.94;100.00;99643.47;4999945;28;19987;-69
2021/11/08 07:32:18;;;;;;;;;;;;;;;7.77;100.00;99632.53;4997887;28;20376;-69
2021/11/08 07:34:44;;;;;;;;;;;;;;;7.70;100.00;99633.47;4966341;28;20059;-69
2021/11/08 07:37:10;;;;;;;;;;;;;;;7.69;100.00;99636.91;4980512;28;20040;-69
2021/11/08 07:39:39;;;;;;;;;;;;;;;8.05;100.00;99634.81;4982172;28;20288;-68
2021/11/08 07:42:05;;;;;;;;;;;;;;;7.88;100.00;99628.16;4998016;28;20321;-69
2021/11/08 07:44:30;;;;;;;;;;;;;;;8.25;100.00;99627.72;4999873;28;19917;-69
2021/11/08 07:46:56;;;;;;;;;;;;;;;7.94;100.00;99633.22;4998309;28;20560;-69
2021/11/08 07:49:22;;;;;;;;;;;;;;;7.59;100.00;99622.47;5000402;28;19922;-69
2021/11/08 07:51:49;;;;;;;;;;;;;;;8.27;100.00;99625.97;4998965;28;20017;-69
2021/11/08 07:54:16;;;;;;;;;;;;;;;7.78;100.00;99621.44;4999737;28;20270;-69
2021/11/08 07:56:44;;;;;;;;;;;;;;;7.68;100.00;99624.94;4998800;28;19917;-68
2021/11/08 07:59:10;;;;;;;;;;;;;;;7.84;100.00;99630.78;4999689;28;19917;-69
2021/11/08 08:01:39;;;;;;;;;;;;;;;7.70;100.00;99633.47;4981576;28;19928;-69
2021/11/08 08:04:07;;;;;;;;;;;;;;;7.79;100.00;99646.19;4997317;28;19922;-68
2021/11/08 08:06:33;;;;;;;;;;;;;;;7.83;100.00;99647.88;4998554;28;19918;-68
2021/11/08 08:08:59;;;;;;;;;;;;;;;7.73;100.00;99659.06;4982558;28;19921;-69
2021/11/08 08:11:26;;;;;;;;;;;;;;;7.93;100.00;99654.59;4999005;28;19996;-69
2021/11/08 08:13:52;;;;;;;;;;;;;;;7.80;100.00;99658.19;4999125;28;20004;-69
2021/11/08 08:16:18;;;;;;;;;;;;;;;8.50;100.00;99665.94;4981433;28;20016;-69
2021/11/08 08:18:43;;;;;;;;;;;;;;;8.00;100.00;99660.50;4998507;28;19932;-69
2021/11/08 08:21:09;;;;;;;;;;;;;;;8.35;100.00;99662.69;4997848;28;19922;-69
2021/11/08 08:23:35;;;;;;;;;;;;;;;8.39;100.00;99658.34;4981653;28;19918;-69
2021/11/08 08:26:02;;;;;;;;;;;;;;;8.23;100.00;99670.50;4982525;28;19917;-69
2021/11/08 08:28:28;;;;;;;;;;;;;;;8.73;100.00;99670.78;4998028;28;19924;-69
2021/11/08 08:30:54;;;;;;;;;;;;;;;8.94;100.00;99667.03;4998953;28;19917;-69
2021/11/08 08:33:25;;;;;;;;;;;;;;;8.27;100.00;99672.16;4998376;28;19918;-69
2021/11/08 08:36:08;;;;;;;;;;;;;;;8.51;100.00;99676.19;4996132;28;19924;-68
2021/11/08 08:38:35;;;;;;;;;;;;;;;8.85;100.00;99677.44;4997000;28;19913;-69
2021/11/08 08:41:00;;;;;;;;;;;;;;;8.79;100.00;99671.53;4997043;28;19920;-69
2021/11/08 08:43:28;;;;;;;;;;;;;;;8.72;100.00;99669.09;4996744;28;20536;-69
2021/11/08 08:45:59;;;;;;;;;;;;;;;8.56;100.00;99683.84;4997683;28;19921;-69
2021/11/08 08:48:25;;;;;;;;;;;;;;;8.66;100.00;99669.16;4996233;28;19975;-69
2021/11/08 08:50:51;;;;;;;;;;;;;;;8.45;100.00;99680.56;4997842;28;19922;-69
2021/11/08 08:53:16;;;;;;;;;;;;;;;8.34;100.00;99678.94;4994595;28;19996;-69
2021/11/08 08:55:42;;;;;;;;;;;;;;;8.70;100.00;99681.94;4998527;28;20003;-69
2021/11/08 08:58:14;;;;;;;;;;;;;;;8.55;100.00;99682.13;4999713;28;19953;-69
2021/11/08 09:01:03;;;;;;;;;;;;;;;8.54;100.00;99695.84;5005375;28;19921;-69
2021/11/08 09:03:30;;;;;;;;;;;;;;;8.51;100.00;99701.03;5005128;28;20008;-65
2021/11/08 09:05:55;;;;;;;;;;;;;;;9.14;100.00;99698.44;5007058;28;19987;-70
2021/11/08 09:08:21;;;;;;;;;;;;;;;8.73;100.00;99707.56;5005312;28;20384;-69
2021/11/08 09:10:49;;;;;;;;;;;;;;;8.90;100.00;99694.50;5006042;28;20000;-70
2021/11/08 09:13:15;;;;;;;;;;;;;;;9.59;100.00;99696.00;5004160;28;20447;-69
2021/11/08 09:15:45;;;;;;;;;;;;;;;9.43;100.00;99694.56;5003265;28;19921;-72
2021/11/08 09:18:15;;;;;;;;;;;;;;;9.53;100.00;99688.38;5005303;28;19925;-70
2021/11/08 09:20:43;;;;;;;;;;;;;;;9.53;100.00;99685.81;5004455;28;19925;-69
2021/11/08 09:23:18;;;;;;;;;;;;;;;9.41;100.00;99694.59;4987006;28;20000;-70
2021/11/08 09:25:44;;;;;;;;;;;;;;;9.45;100.00;99703.09;5005092;28;19917;-69
2021/11/08 09:28:09;;;;;;;;;;;;;;;9.25;100.00;99705.13;4986681;28;19928;-69
2021/11/08 09:30:37;;;;;;;;;;;;;;;9.70;100.00;99702.72;4987988;28;19928;-69
2021/11/08 09:33:02;;;;;;;;;;;;;;;9.32;100.00;99696.47;5008398;28;19917;-69
2021/11/08 09:35:32;;;;;;;;;;;;;;;9.30;100.00;99703.34;5009236;28;19932;-69
2021/11/08 09:37:59;;;;;;;;;;;;;;;9.41;100.00;99701.44;5008016;28;20004;-69
2021/11/08 09:40:24;;;;;;;;;;;;;;;9.71;100.00;99704.38;5006031;28;19922;-69
2021/11/08 09:42:54;;;;;;;;;;;;;;;9.90;100.00;99692.03;5006893;28;20292;-70
2021/11/08 09:45:20;;;;;;;;;;;;;;;9.55;100.00;99694.34;4989754;28;20000;-69
2021/11/08 09:47:45;;;;;;;;;;;;;;;10.08;100.00;99683.13;5008198;28;20007;-70
2021/11/08 09:50:11;;;;;;;;;;;;;;;9.89;100.00;99683.47;5007734;28;19918;-69
2021/11/08 09:52:38;;;;;;;;;;;;;;;9.64;100.00;99689.06;5008969;28;20277;-69
2021/11/08 09:55:04;;;;;;;;;;;;;;;9.77;100.00;99688.84;5007631;28;19924;-69
2021/11/08 09:57:30;;;;;;;;;;;;;;;9.72;100.00;99685.53;5005306;28;19913;-69
2021/11/08 09:59:56;;;;;;;;;;;;;;;9.27;100.00;99693.13;5008177;28;20288;-69
2021/11/08 10:02:28;;;;;;;;;;;;;;;9.85;100.00;99697.28;5007702;28;19928;-69
2021/11/08 10:07:58;;;;;;;;;;;;;;;9.03;100.00;99695.16;5003700;28;19963;-70
2021/11/08 10:10:25;;;;;;;;;;;;;;;9.41;100.00;99704.03;4988771;28;20528;-69
2021/11/08 10:13:04;;;;;;;;;;;;;;;9.19;100.00;99696.66;5007369;28;19953;-69
2021/11/08 10:15:30;;;;;;;;;;;;;;;9.56;100.00;99696.06;5007800;28;19917;-69
2021/11/08 10:17:55;;;;;;;;;;;;;;;9.51;100.00;99694.44;5005822;28;19922;-68
2021/11/08 10:20:44;;;;;;;;;;;;;;;9.73;100.00;99694.94;5005759;28;20354;-69
2021/11/08 10:23:10;;;;;;;;;;;;;;;9.44;100.00;99698.81;4997946;28;19926;-69
2021/11/08 10:25:53;;;;;;;;;;;;;;;9.49;100.00;99709.91;4990201;28;20395;-69
2021/11/08 10:28:20;;;;;;;;;;;;;;;9.51;100.00;99705.59;5007708;28;20358;-69
2021/11/08 10:30:46;;;;;;;;;;;;;;;9.50;100.00;99701.31;4989639;28;20039;-69
2021/11/08 10:33:31;;;;;;;;;;;;;;;9.55;100.00;99698.66;4989682;28;20433;-69
2021/11/08 10:36:00;;;;;;;;;;;;;;;9.94;100.00;99693.69;5005490;28;20039;-70
2021/11/08 10:38:32;;;;;;;;;;;;;;;9.94;100.00;99691.13;5008836;28;19925;-69
2021/11/08 10:40:59;;;;;;;;;;;;;;;9.63;100.00;99696.81;5007184;28;19926;-69
2021/11/08 10:43:26;;;;;;;;;;;;;;;9.82;100.00;99697.34;4989181;28;20055;-69
2021/11/08 10:45:52;;;;;;;;;;;;;;;10.10;100.00;99702.81;4990323;28;19929;-70
2021/11/08 10:48:22;;;;;;;;;;;;;;;10.13;100.00;99700.19;5008379;28;19918;-69
2021/11/08 10:50:48;;;;;;;;;;;;;;;9.86;100.00;99691.25;5007508;28;19914;-69
2021/11/08 10:53:13;;;;;;;;;;;;;;;10.43;100.00;99679.91;5004091;28;20380;-70
2021/11/08 10:55:38;;;;;;;;;;;;;;;10.31;100.00;99687.88;5007853;28;20476;-69
2021/11/08 10:58:22;;;;;;;;;;;;;;;10.31;100.00;99691.31;5007920;28;20336;-69
2021/11/08 11:00:47;;;;;;;;;;;;;;;9.81;100.00;99703.38;5005877;28;19921;-69
2021/11/08 11:03:14;;;;;;;;;;;;;;;9.43;100.00;99695.41;5008863;28;20292;-70
2021/11/08 11:05:42;;;;;;;;;;;;;;;9.27;100.00;99686.25;5009290;28;19914;-69
2021/11/08 11:08:14;;;;;;;;;;;;;;;9.21;100.00;99700.06;5008973;28;20071;-69
2021/11/08 11:10:50;;;;;;;;;;;;;;;9.09;100.00;99684.81;5009160;28;19925;-69
2021/11/08 11:13:20;;;;;;;;;;;;;;;9.72;100.00;99690.66;4991033;28;19924;-69
2021/11/08 11:16:01;;;;;;;;;;;;;;;10.47;100.00;99681.56;4991709;28;19914;-69
2021/11/08 11:18:27;;;;;;;;;;;;;;;10.09;100.00;99659.13;5007093;28;19975;-69
2021/11/08 11:20:53;;;;;;;;;;;;;;;10.74;100.00;99654.38;5007693;28;20337;-69
2021/11/08 11:23:36;;;;;;;;;;;;;;;10.62;100.00;99649.47;5006708;28;19921;-69
2021/11/08 11:26:29;;;;;;;;;;;;;;;10.59;100.00;99644.38;5006260;28;19921;-69
2021/11/08 11:38:24;;;;;;;;;;;;;;;10.35;100.00;99644.00;5007750;28;19928;-70
2021/11/08 11:40:53;;;;;;;;;;;;;;;10.26;100.00;99641.59;5007292;28;20355;-70
2021/11/08 11:43:25;;;;;;;;;;;;;;;10.01;100.00;99642.09;4984587;28;19917;-69
2021/11/08 11:52:17;;;;;;;;;;;;;;;10.38;100.00;99650.84;5008636;28;19964;-69
2021/11/08 11:55:39;;;;;;;;;;;;;;;10.01;100.00;99651.53;5008453;28;19966;-69
2021/11/08 11:58:31;;;;;;;;;;;;;;;10.13;100.00;99655.63;5002304;28;19917;-69
2021/11/08 12:07:29;;;;;;;;;;;;;;;10.00;100.00;99676.41;5007740;28;19928;-69
2021/11/08 12:13:18;;;;;;;;;;;;;;;10.76;100.00;99656.88;5007621;28;20453;-69
2021/11/08 12:16:19;;;;;;;;;;;;;;;10.58;100.00;99648.69;4973247;28;19975;-69
2021/11/08 12:19:31;;;;;;;;;;;;;;;10.73;100.00;99649.22;4921411;29;20355;-68
2021/11/08 12:25:52;;;;;;;;;;;;;;;10.61;100.00;99627.19;4927363;28;19930;-66
2021/11/08 12:29:02;;;;;;;;;;;;;;;10.51;100.00;99635.97;4930411;28;19926;-66
2021/11/08 12:35:05;;;;;;;;;;;;;;;10.61;100.00;99637.47;4925032;28;20039;-66
2021/11/08 12:44:17;;;;;;;;;;;;;;;10.42;100.00;99643.03;4926084;28;19989;-66
2021/11/08 12:46:52;;;;;;;;;;;;;;;10.50;100.00;99629.97;4925741;28;19930;-66
2021/11/08 12:49:55;;;;;;;;;;;;;;;10.63;100.00;99635.72;4925687;28;20493;-66
2021/11/08 12:52:27;;;;;;;;;;;;;;;10.53;100.00;99632.47;4914097;28;19930;-64
2021/11/08 12:55:30;;;;;;;;;;;;;;;10.18;100.00;99630.63;4964013;28;19930;-64
2021/11/08 12:58:22;;;;;;;;;;;;;;;9.89;100.00;99634.59;4967958;28;19960;-65
2021/11/08 13:04:13;;;;;;;;;;;;;;;10.40;100.00;99639.63;4970060;28;20080;-64
2021/11/08 13:07:35;;;;;;;;;;;;;;;10.52;100.00;99624.81;4973868;28;19968;-68
2021/11/08 13:10:08;;;;;;;;;;;;;;;10.39;100.00;99617.31;4978698;28;19993;-68
2021/11/08 13:12:44;;;;;;;;;;;;;;;10.39;100.00;99621.63;4970880;28;20381;-68
2021/11/08 13:15:29;;;;;;;;;;;;;;;10.66;100.00;99626.19;4973677;28;19925;-68
2021/11/08 13:18:06;;;;;;;;;;;;;;;10.89;100.00;99625.66;4988460;28;19964;-64
2021/11/08 13:20:50;;;;;;;;;;;;;;;10.56;100.00;99618.69;4996634;28;20629;-64
2021/11/08 13:23:24;;;;;;;;;;;;;;;10.41;100.00;99625.88;5007142;28;19976;-65
2021/11/08 13:26:15;;;;;;;;;;;;;;;10.19;100.00;99622.00;4978027;28;19955;-69
2021/11/08 13:28:47;;;;;;;;;;;;;;;10.19;100.00;99622.00;4993651;28;20270;-69
2021/11/08 13:31:16;;;;;;;;;;;;;;;10.57;100.00;99631.53;4998752;28;19921;-68
2021/11/08 13:33:53;;;;;;;;;;;;;;;10.46;100.00;99634.31;4995479;28;19918;-68
2021/11/08 13:36:23;;;;;;;;;;;;;;;10.66;100.00;99627.91;4997531;28;20020;-68
2021/11/08 13:38:50;;;;;;;;;;;;;;;10.55;100.00;99629.88;4993004;28;19941;-68
2021/11/08 13:41:35;;;;;;;;;;;;;;;10.91;100.00;99635.09;5004906;28;20377;-68
2021/11/08 13:44:19;;;;;;;;;;;;;;;10.63;100.00;99630.56;4992906;28;19918;-68
2021/11/08 13:47:12;;;;;;;;;;;;;;;10.56;100.00;99634.13;4994707;28;19924;-68
2021/11/08 13:53:02;;;;;;;;;;;;;;;10.25;100.00;99634.75;4991890;28;20347;-68
2021/11/08 13:55:27;;;;;;;;;;;;;;;11.05;100.00;99633.88;4998202;28;19965;-68
2021/11/08 13:58:21;;;;;;;;;;;;;;;10.60;100.00;99622.88;4998319;28;19914;-66
2021/11/08 14:01:11;;;;;;;;;;;;;;;10.24;100.00;99627.91;4995946;28;19928;-67
2021/11/08 14:07:02;;;;;;;;;;;;;;;10.17;100.00;99631.47;5007002;28;19924;-68
2021/11/08 14:10:08;;;;;;;;;;;;;;;10.40;100.00;99634.47;4996369;28;19913;-68
2021/11/08 14:15:57;;;;;;;;;;;;;;;10.08;100.00;99644.53;5008899;28;19983;-68
2021/11/08 14:18:22;;;;;;;;;;;;;;;10.00;100.00;99650.69;4997852;28;19924;-68
2021/11/08 14:27:21;;;;;;;;;;;;;;;10.10;100.00;99671.09;5010117;28;19948;-68
2021/11/08 14:36:01;;;;;;;;;;;;;;;10.28;100.00;99688.75;5007138;28;20339;-68
2021/11/08 14:38:57;;;;;;;;;;;;;;;10.40;100.00;99677.38;4999778;28;20016;-68
2021/11/08 14:57:00;;;;;;;;;;;;;;;10.02;100.00;99686.69;5006116;28;20021;-68
2021/11/08 14:59:51;;;;;;;;;;;;;;;9.78;100.00;99694.00;4990907;28;19980;-68
2021/11/08 15:02:18;;;;;;;;;;;;;;;10.05;100.00;99690.03;5014616;28;19924;-68
2021/11/08 15:04:44;;;;;;;;;;;;;;;10.08;100.00;99696.00;5009981;28;19921;-68
2021/11/08 15:07:14;;;;;;;;;;;;;;;10.26;100.00;99693.94;5009376;28;19987;-67
2021/11/08 15:09:51;;;;;;;;;;;;;;;10.43;100.00;99691.06;4979402;28;19996;-68
2021/11/08 15:12:56;;;;;;;;;;;;;;;10.04;100.00;99692.66;5008715;28;19941;-68
2021/11/08 15:15:56;;;;;;;;;;;;;;;10.55;100.00;99694.25;5002110;28;20016;-67
2021/11/08 15:18:46;;;;;;;;;;;;;;;10.12;100.00;99695.06;4993690;28;19984;-68
2021/11/08 15:21:41;;;;;;;;;;;;;;;10.16;100.00;99689.00;5007778;28;20008;-68
2021/11/08 16:22:50;;;;;;;;;;;;;;;10.23;100.00;99760.91;5001103;28;19928;-68
2021/11/08 16:28:37;;;;;;;;;;;;;;;10.70;100.00;99755.78;5009040;28;20327;-68
2021/11/08 16:31:33;;;;;;;;;;;;;;;10.36;100.00;99753.00;5007908;28;19913;-68
2021/11/08 16:37:52;;;;;;;;;;;;;;;10.44;100.00;99751.97;4958905;28;20004;-68
2021/11/08 17:34:52;;;;;;;;;;;;;;;10.22;100.00;99827.88;4964779;28;19996;-67
2021/11/08 17:37:48;;;;;;;;;;;;;;;10.13;100.00;99830.63;4964275;28;19922;-68
2021/11/08 17:58:45;;;;;;;;;;;;;;;9.88;100.00;99861.06;5010985;28;19932;-77
2021/11/08 18:01:11;;;;;;;;;;;;;;;9.93;100.00;99860.09;5015764;28;20035;-76
2021/11/08 18:03:37;;;;;;;;;;;;;;;9.81;100.00;99855.16;4982564;28;20463;-76
2021/11/08 18:06:03;;;;;;;;;;;;;;;9.82;100.00;99860.25;4995559;28;19982;-75
2021/11/08 18:08:29;;;;;;;;;;;;;;;10.16;100.00;99858.88;4997986;28;19920;-76
2021/11/08 18:10:54;;;;;;;;;;;;;;;9.79;100.00;99859.47;4996505;28;19924;-75
2021/11/08 18:13:21;;;;;;;;;;;;;;;10.25;100.00;99851.84;4997169;28;19925;-76
2021/11/08 18:15:47;;;;;;;;;;;;;;;9.90;100.00;99847.28;5016759;28;20553;-75
2021/11/08 18:18:14;;;;;;;;;;;;;;;9.61;100.00;99864.00;4994965;28;20400;-76
2021/11/08 18:20:54;;;;;;;;;;;;;;;10.03;100.00;99871.06;4997613;28;20000;-75
2021/11/08 18:28:32;;;;;;;;;;;;;;;9.49;100.00;99884.75;4997417;28;21354;-76
2021/11/08 18:30:59;;;;;;;;;;;;;;;9.60;100.00;99890.59;4999797;28;19925;-76
2021/11/08 18:33:25;;;;;;;;;;;;;;;9.44;100.00;99886.50;5017942;28;20526;-76
2021/11/08 18:35:51;;;;;;;;;;;;;;;9.72;100.00;99888.72;4999296;28;20391;-77
2021/11/08 18:38:16;;;;;;;;;;;;;;;9.78;100.00;99891.19;5016197;28;19932;-76
2021/11/08 18:40:42;;;;;;;;;;;;;;;10.11;100.00;99886.41;4984291;28;19925;-75